This is the latest recevied weather packets stored in our database for station/object W2GRK-15. If no packets are shown the sender has not sent any weather packets the latest 10 day(s).
| Time | Temp. | Humidity | Pressure | Rain* | Wind** | Luminosity | Snow |
|---|---|---|---|---|---|---|---|
| 1777988960 | 21.11° C | 58% | 1011.8 hPa | 0 mm | - | 538 W/m² | - |
| 1777988690 | 21.67° C | 56% | 1011.8 hPa | 0 mm | - | 520 W/m² | - |
| 1777988541 | 21.67° C | 57% | 1011.7 hPa | 0 mm | - | 515 W/m² | - |
| 1777988477 | 21.67° C | 58% | 1011.8 hPa | 0 mm | - | 514 W/m² | - |
| 1777987398 | 20° C | 60% | 1011.9 hPa | 0 mm | - | 358 W/m² | - |
| 1777987350 | 20° C | 59% | 1012 hPa | 0 mm | - | 347 W/m² | - |
| 1777987042 | 20° C | 59% | 1011.6 hPa | 0 mm | - | 493 W/m² | - |
| 1777986509 | 20° C | 60% | 1011.6 hPa | 0 mm | - | 406 W/m² | - |
| 1777986381 | 20° C | 60% | 1011.6 hPa | 0 mm | - | 373 W/m² | - |
| 1777986139 | 20° C | 59% | 1011.8 hPa | 0 mm | - | 397 W/m² | - |
| 1777985741 | 20° C | 59% | 1011.8 hPa | 0 mm | - | 371 W/m² | - |
| 1777985302 | 19.44° C | 62% | 1011.4 hPa | 0 mm | - | 344 W/m² | - |
| 1777984577 | 18.89° C | 63% | 1011.6 hPa | 0 mm | - | 292 W/m² | - |
| 1777984287 | 18.89° C | 63% | 1011.6 hPa | 0 mm | - | 270 W/m² | - |
| 1777983917 | 18.89° C | 63% | 1011.6 hPa | 0 mm | - | 252 W/m² | - |
| 1777983675 | 18.89° C | 62% | 1011.4 hPa | 0 mm | - | 241 W/m² | - |
| 1777983562 | 19.44° C | 62% | 1011.3 hPa | 0 mm | - | 236 W/m² | - |
| 1777983079 | 18.89° C | 64% | 1011.5 hPa | 0 mm | - | 213 W/m² | - |
| 1777982902 | 18.89° C | 64% | 1011.6 hPa | 0 mm | - | 205 W/m² | - |
| 1777982661 | 18.89° C | 65% | 1011.5 hPa | 0 mm | - | 193 W/m² | - |
| 1777982548 | 18.89° C | 65% | 1011.5 hPa | 0 mm | - | 187 W/m² | - |
| 1777982371 | 18.33° C | 65% | 1011.6 hPa | 0 mm | - | 178 W/m² | - |
| 1777981645 | 17.78° C | 68% | 1011.7 hPa | 0 mm | - | 148 W/m² | - |
| 1777980896 | 16.67° C | 72% | 1011.9 hPa | 0 mm | - | 107 W/m² | - |
| 1777980631 | 16.67° C | 73% | 1011.7 hPa | 0 mm | - | 94 W/m² | - |
* Rain latest hour (hover to see other rain measurements)
** Current wind speed in m/s (hover to see current wind gust speed)